createdAt,value
2022-12-13T00:01:45.866Z,8.50
2022-12-13T00:04:15.581Z,8.50
2022-12-13T00:06:50.062Z,8.50
2022-12-13T00:09:21.407Z,8.60
2022-12-13T00:11:49.632Z,8.50
2022-12-13T00:14:17.958Z,8.50
2022-12-13T00:16:47.083Z,8.50
2022-12-13T00:19:16.785Z,8.50
2022-12-13T00:21:44.870Z,8.50
2022-12-13T00:24:13.009Z,8.50
2022-12-13T00:26:41.631Z,8.50
2022-12-13T00:29:20.234Z,8.50
2022-12-13T00:32:02.242Z,8.50
2022-12-13T00:34:32.039Z,8.50
2022-12-13T00:37:00.277Z,8.50
2022-12-13T00:39:28.720Z,8.50
2022-12-13T00:41:56.744Z,8.50
2022-12-13T00:44:24.883Z,8.50
2022-12-13T00:46:53.323Z,8.50
2022-12-13T00:49:21.434Z,8.50
2022-12-13T00:51:50.881Z,8.50
2022-12-13T00:54:19.432Z,8.50
2022-12-13T00:56:51.642Z,8.50
2022-12-13T00:59:19.690Z,8.40
2022-12-13T01:01:47.844Z,8.50
2022-12-13T01:04:15.973Z,8.50
2022-12-13T01:06:44.962Z,8.50
2022-12-13T01:09:17.326Z,8.50
2022-12-13T01:11:45.715Z,8.50
2022-12-13T01:14:15.797Z,8.50
2022-12-13T01:16:43.945Z,8.50
2022-12-13T01:19:12.085Z,8.50
2022-12-13T01:21:40.165Z,8.50
2022-12-13T01:24:08.386Z,8.50
2022-12-13T01:26:38.521Z,8.50
2022-12-13T01:29:06.657Z,8.50
2022-12-13T01:31:34.832Z,8.40
2022-12-13T01:34:10.342Z,8.50
2022-12-13T01:36:38.606Z,8.40
2022-12-13T01:39:14.342Z,8.40
2022-12-13T01:41:45.236Z,8.40
2022-12-13T01:44:46.620Z,8.40
2022-12-13T01:47:15.358Z,8.40
2022-12-13T01:49:43.510Z,8.40
2022-12-13T01:52:11.693Z,8.40
2022-12-13T01:54:46.604Z,8.40
2022-12-13T01:57:17.116Z,8.40
2022-12-13T01:59:45.138Z,8.40
2022-12-13T02:02:13.934Z,8.40
2022-12-13T02:04:44.548Z,8.40
2022-12-13T02:07:13.530Z,8.40
2022-12-13T02:09:57.081Z,8.40
2022-12-13T02:12:29.539Z,8.40
2022-12-13T02:15:00.864Z,8.40
2022-12-13T02:17:33.071Z,8.40
2022-12-13T02:20:28.086Z,8.40
2022-12-13T02:23:06.478Z,8.40
2022-12-13T02:25:46.100Z,8.40
2022-12-13T02:28:31.411Z,8.40
2022-12-13T02:31:05.833Z,8.40
2022-12-13T02:33:40.179Z,8.40
2022-12-13T02:36:12.265Z,8.40
2022-12-13T02:38:46.056Z,8.40
2022-12-13T02:41:17.004Z,8.40
2022-12-13T02:43:49.029Z,8.40
2022-12-13T02:46:20.044Z,8.40
2022-12-13T02:48:52.205Z,8.40
2022-12-13T02:51:20.314Z,8.40
2022-12-13T02:53:48.711Z,8.30
2022-12-13T02:56:16.763Z,8.40
2022-12-13T02:58:45.983Z,8.40
2022-12-13T03:01:40.675Z,8.40
2022-12-13T03:04:13.004Z,8.40
2022-12-13T03:06:47.297Z,8.30
2022-12-13T03:09:24.653Z,8.30
2022-12-13T03:12:17.497Z,8.40
2022-12-13T03:14:47.970Z,8.40
2022-12-13T03:17:17.662Z,8.30
2022-12-13T03:19:45.760Z,8.30
2022-12-13T03:22:13.827Z,8.30
2022-12-13T03:24:48.381Z,8.30
2022-12-13T03:27:16.459Z,8.40
2022-12-13T03:29:44.472Z,8.30
2022-12-13T03:32:12.566Z,8.30
2022-12-13T03:34:43.706Z,8.30
2022-12-13T03:37:13.669Z,8.30
2022-12-13T03:39:41.778Z,8.30
2022-12-13T03:45:00.361Z,8.30
2022-12-13T03:47:28.408Z,8.30
2022-12-13T03:49:57.848Z,8.30
2022-12-13T03:52:47.589Z,8.30
2022-12-13T03:55:16.258Z,8.30
2022-12-13T03:57:44.708Z,8.30
2022-12-13T04:00:14.590Z,8.30
2022-12-13T04:02:58.673Z,8.30
2022-12-13T04:05:28.726Z,8.30
2022-12-13T04:08:00.844Z,8.30
2022-12-13T04:10:29.204Z,8.30
2022-12-13T04:13:14.565Z,8.30
2022-12-13T04:15:49.016Z,8.30
2022-12-13T04:18:17.576Z,8.30
2022-12-13T04:20:47.014Z,8.30
2022-12-13T04:23:15.105Z,8.30
2022-12-13T04:25:43.373Z,8.30
2022-12-13T04:28:12.167Z,8.30
2022-12-13T04:30:53.111Z,8.30
2022-12-13T04:33:22.223Z,8.30
2022-12-13T04:35:51.889Z,8.30
2022-12-13T04:38:26.021Z,8.30
2022-12-13T04:40:54.078Z,8.30
2022-12-13T04:43:22.159Z,8.30
2022-12-13T04:45:50.236Z,8.30
2022-12-13T04:48:30.672Z,8.30
2022-12-13T04:51:01.662Z,8.30
2022-12-13T04:53:30.112Z,8.20
2022-12-13T04:55:58.269Z,8.20
2022-12-13T04:58:26.351Z,8.20
2022-12-13T05:00:55.036Z,8.20
2022-12-13T05:03:26.078Z,8.20
2022-12-13T05:05:54.363Z,8.20
2022-12-13T05:08:23.847Z,8.20
2022-12-13T05:10:51.943Z,8.20
2022-12-13T05:13:20.051Z,8.20
2022-12-13T05:15:53.590Z,8.20
2022-12-13T05:18:23.198Z,8.20
2022-12-13T05:20:52.043Z,8.20
2022-12-13T05:23:22.376Z,8.20
2022-12-13T05:25:52.704Z,8.20
2022-12-13T05:28:28.053Z,8.20
2022-12-13T05:30:57.922Z,8.20
2022-12-13T05:33:26.669Z,8.20
2022-12-13T05:35:59.407Z,8.20
2022-12-13T05:38:29.396Z,8.20
2022-12-13T05:40:58.944Z,8.20
2022-12-13T05:43:32.832Z,8.20
2022-12-13T05:46:13.678Z,8.20
2022-12-13T05:48:41.937Z,8.20
2022-12-13T05:51:11.890Z,8.20
2022-12-13T05:53:40.982Z,8.20
2022-12-13T05:56:10.654Z,8.20
2022-12-13T05:58:39.358Z,8.20
2022-12-13T06:01:08.419Z,8.20
2022-12-13T06:03:36.649Z,8.20
2022-12-13T06:06:05.107Z,8.20
2022-12-13T06:08:33.260Z,8.20
2022-12-13T06:11:10.742Z,8.20
2022-12-13T06:13:44.028Z,8.20
2022-12-13T06:16:21.885Z,8.20
2022-12-13T06:18:55.855Z,8.20
2022-12-13T06:21:41.647Z,8.20
2022-12-13T06:24:14.528Z,8.20
2022-12-13T06:26:42.594Z,8.20
2022-12-13T06:29:23.257Z,8.20
2022-12-13T06:32:01.382Z,8.20
2022-12-13T06:34:32.410Z,8.20
2022-12-13T06:37:00.938Z,8.20
2022-12-13T06:39:32.441Z,8.10
2022-12-13T06:42:01.827Z,8.10
2022-12-13T06:44:31.320Z,8.20
2022-12-13T06:47:12.219Z,8.10
2022-12-13T06:49:42.003Z,8.10
2022-12-13T06:52:11.816Z,8.20
2022-12-13T06:54:40.098Z,8.10
2022-12-13T06:57:08.176Z,8.20
2022-12-13T06:59:37.682Z,8.10
2022-12-13T07:02:05.847Z,8.10
2022-12-13T07:04:34.028Z,8.10
2022-12-13T07:07:02.759Z,8.10
2022-12-13T07:09:37.055Z,8.10
2022-12-13T07:12:05.402Z,8.10
2022-12-13T07:14:40.895Z,8.10
2022-12-13T07:17:11.258Z,8.10
2022-12-13T07:19:39.756Z,8.10
2022-12-13T07:22:07.888Z,8.10
2022-12-13T07:24:36.242Z,8.10
2022-12-13T07:27:10.552Z,8.10
2022-12-13T07:29:39.367Z,8.10
2022-12-13T07:32:07.912Z,8.10
2022-12-13T07:34:37.711Z,8.10
2022-12-13T07:37:05.781Z,8.10
2022-12-13T07:39:33.884Z,8.10
2022-12-13T07:42:02.032Z,8.10
2022-12-13T07:44:30.120Z,8.10
2022-12-13T07:46:58.233Z,8.10
2022-12-13T07:49:29.139Z,8.10
2022-12-13T07:52:16.290Z,8.10
2022-12-13T07:54:44.478Z,8.10
2022-12-13T07:57:13.346Z,8.10
2022-12-13T07:59:41.621Z,8.10
2022-12-13T08:02:11.088Z,8.10
2022-12-13T08:04:39.243Z,8.10
2022-12-13T08:07:08.978Z,8.10
2022-12-13T08:09:51.097Z,8.10
2022-12-13T08:12:23.125Z,8.10
2022-12-13T08:14:53.115Z,8.10
2022-12-13T08:17:22.352Z,8.10
2022-12-13T08:19:50.491Z,8.10
2022-12-13T08:22:24.138Z,8.10
2022-12-13T08:24:53.862Z,8.10
2022-12-13T08:27:22.123Z,8.10
2022-12-13T08:29:50.171Z,8.10
2022-12-13T08:32:18.254Z,8.10
2022-12-13T08:34:46.679Z,8.00
2022-12-13T08:37:14.777Z,8.00
2022-12-13T08:39:44.659Z,8.00
2022-12-13T08:42:18.170Z,8.00
2022-12-13T08:44:48.356Z,8.10
2022-12-13T08:47:23.396Z,8.00
2022-12-13T08:49:54.571Z,8.00
2022-12-13T08:52:23.810Z,8.00
2022-12-13T08:54:51.916Z,8.10
2022-12-13T08:57:21.482Z,8.00
2022-12-13T08:59:49.906Z,8.00
2022-12-13T09:02:18.070Z,8.10
2022-12-13T09:04:46.248Z,8.00
2022-12-13T09:07:28.211Z,8.00
2022-12-13T09:09:56.325Z,8.00
2022-12-13T09:12:30.533Z,8.00
2022-12-13T09:15:01.333Z,8.00
2022-12-13T09:17:36.838Z,8.00
2022-12-13T09:20:09.943Z,8.00
2022-12-13T09:23:03.564Z,8.00
2022-12-13T09:25:40.448Z,8.00
2022-12-13T09:28:10.097Z,8.00
2022-12-13T09:30:38.389Z,8.00
2022-12-13T09:33:17.622Z,8.00
2022-12-13T09:35:54.731Z,8.00
2022-12-13T09:38:22.757Z,8.00
2022-12-13T09:40:59.199Z,8.00
2022-12-13T09:43:32.626Z,8.00
2022-12-13T09:46:02.152Z,8.00
2022-12-13T09:48:34.559Z,8.00
2022-12-13T09:51:17.049Z,8.00
2022-12-13T09:53:52.203Z,8.00
2022-12-13T09:56:20.869Z,8.00
2022-12-13T09:58:51.942Z,8.00
2022-12-13T10:01:22.395Z,8.00
2022-12-13T10:03:53.359Z,8.00
2022-12-13T10:06:22.640Z,8.00
2022-12-13T10:08:57.333Z,8.00
2022-12-13T10:11:31.482Z,8.00
2022-12-13T10:14:03.219Z,8.00
2022-12-13T10:16:37.022Z,8.00
2022-12-13T10:19:29.084Z,8.00
2022-12-13T10:22:01.303Z,8.00
2022-12-13T10:24:36.884Z,8.00
2022-12-13T10:27:12.447Z,8.00
2022-12-13T10:30:00.661Z,8.00
2022-12-13T10:32:28.925Z,8.00
2022-12-13T10:34:57.084Z,8.00
2022-12-13T10:37:29.635Z,8.00
2022-12-13T10:39:57.851Z,8.00
2022-12-13T10:42:32.100Z,8.00
2022-12-13T10:45:23.538Z,8.00
2022-12-13T10:47:52.119Z,8.00
2022-12-13T10:50:25.493Z,8.00
2022-12-13T10:52:53.560Z,8.00
2022-12-13T10:55:28.661Z,8.00
2022-12-13T10:57:57.998Z,8.00
2022-12-13T11:00:39.026Z,8.00
2022-12-13T11:03:07.325Z,8.00
2022-12-13T11:05:36.027Z,8.00
2022-12-13T11:08:17.270Z,8.10
2022-12-13T11:10:58.171Z,8.00
2022-12-13T11:13:31.259Z,8.00
2022-12-13T11:16:01.764Z,8.00
2022-12-13T11:18:31.162Z,8.00
2022-12-13T11:21:01.067Z,8.00
2022-12-13T11:23:30.698Z,8.00
2022-12-13T11:26:00.693Z,8.00
2022-12-13T11:28:41.788Z,8.10
2022-12-13T11:31:16.607Z,8.00
2022-12-13T11:33:50.263Z,8.00
2022-12-13T11:36:24.193Z,8.10
2022-12-13T11:39:00.800Z,8.00
2022-12-13T11:41:32.380Z,8.10
2022-12-13T11:44:02.785Z,8.00
2022-12-13T11:46:41.671Z,8.10
2022-12-13T11:49:12.736Z,8.00
2022-12-13T11:51:43.256Z,8.10
2022-12-13T11:54:13.353Z,8.00
2022-12-13T11:57:00.585Z,8.00
2022-12-13T11:59:39.558Z,8.10
2022-12-13T12:02:16.422Z,8.10
2022-12-13T12:04:48.275Z,8.10
2022-12-13T12:07:33.859Z,8.10
2022-12-13T12:10:06.638Z,8.00
2022-12-13T12:12:36.300Z,8.10
2022-12-13T12:15:15.919Z,8.10
2022-12-13T12:17:46.014Z,8.10
2022-12-13T12:20:14.447Z,8.10
2022-12-13T12:22:58.721Z,8.10
2022-12-13T12:25:29.044Z,8.00
2022-12-13T12:28:02.529Z,8.10
2022-12-13T12:30:38.547Z,8.10
2022-12-13T12:33:10.961Z,8.10
2022-12-13T12:36:02.582Z,8.00
2022-12-13T12:39:01.427Z,8.10
2022-12-13T12:41:45.316Z,8.10
2022-12-13T12:44:23.397Z,8.10
2022-12-13T12:50:04.440Z,8.10
2022-12-13T12:52:38.941Z,8.10
2022-12-13T12:55:12.610Z,8.00
2022-12-13T12:57:45.534Z,8.10
2022-12-13T13:00:15.597Z,8.10
2022-12-13T13:02:46.185Z,8.10
2022-12-13T13:05:20.051Z,8.00
2022-12-13T13:07:51.189Z,8.00
2022-12-13T13:10:26.794Z,8.10
2022-12-13T13:13:11.311Z,8.00
2022-12-13T13:16:12.957Z,8.10
2022-12-13T13:18:50.965Z,8.10
2022-12-13T13:21:41.928Z,8.00
2022-12-13T13:24:15.893Z,8.00
2022-12-13T13:26:44.795Z,8.00
2022-12-13T13:29:31.167Z,8.00
2022-12-13T13:34:47.612Z,8.00
2022-12-13T13:37:30.141Z,8.00
2022-12-13T13:39:59.838Z,8.10
2022-12-13T13:42:28.818Z,8.00
2022-12-13T13:45:22.260Z,8.00
2022-12-13T13:47:56.219Z,8.00
2022-12-13T13:51:09.667Z,8.10
2022-12-13T13:54:14.730Z,8.00
2022-12-13T13:57:10.271Z,8.00
2022-12-13T14:00:28.426Z,8.00
2022-12-13T14:03:39.101Z,8.00
2022-12-13T14:06:42.890Z,8.00
2022-12-13T14:09:33.890Z,8.00
2022-12-13T14:12:48.257Z,8.00
2022-12-13T14:15:52.558Z,8.00
2022-12-13T14:18:59.961Z,8.00
2022-12-13T14:21:33.954Z,8.00
2022-12-13T14:24:07.513Z,8.00
2022-12-13T14:26:56.471Z,8.00
2022-12-13T14:29:28.887Z,8.00
2022-12-13T14:31:57.110Z,8.00
2022-12-13T14:34:26.709Z,8.00
2022-12-13T14:36:58.763Z,8.00
2022-12-13T14:39:26.947Z,8.00
2022-12-13T14:41:56.928Z,8.00
2022-12-13T14:44:28.736Z,8.00
2022-12-13T14:46:57.618Z,8.00
2022-12-13T14:49:27.491Z,8.00
2022-12-13T14:52:00.317Z,8.00
2022-12-13T14:54:30.965Z,8.00
2022-12-13T14:56:59.718Z,8.00
2022-12-13T14:59:29.427Z,8.00
2022-12-13T15:01:59.062Z,8.00
2022-12-13T15:04:29.486Z,8.00
2022-12-13T15:07:03.733Z,8.00
2022-12-13T15:09:31.902Z,8.00
2022-12-13T15:12:23.832Z,8.00
2022-12-13T15:14:52.663Z,8.00
2022-12-13T15:17:45.718Z,8.00
2022-12-13T15:20:24.939Z,8.00
2022-12-13T15:22:58.612Z,8.00
2022-12-13T15:25:26.678Z,8.00
2022-12-13T15:27:55.025Z,8.00
2022-12-13T15:30:30.148Z,8.00
2022-12-13T15:33:25.219Z,8.00
2022-12-13T15:36:06.740Z,8.00
2022-12-13T15:38:34.835Z,8.00
2022-12-13T15:41:02.903Z,8.00
2022-12-13T15:43:34.326Z,8.00
2022-12-13T15:46:03.816Z,8.00
2022-12-13T15:48:33.344Z,8.00
2022-12-13T15:51:09.506Z,8.00
2022-12-13T15:53:37.904Z,8.00
2022-12-13T15:56:33.558Z,8.00
2022-12-13T15:59:02.005Z,8.00
2022-12-13T16:01:32.258Z,8.00
2022-12-13T16:04:03.648Z,8.00
2022-12-13T16:06:33.002Z,8.00
2022-12-13T16:09:02.188Z,8.00
2022-12-13T16:11:31.661Z,8.00
2022-12-13T16:14:49.183Z,8.00
2022-12-13T16:17:24.665Z,8.00
2022-12-13T16:19:53.296Z,7.90
2022-12-13T16:22:23.830Z,7.90
2022-12-13T16:24:52.718Z,7.90
2022-12-13T16:27:20.858Z,7.90
2022-12-13T16:29:48.938Z,7.90
2022-12-13T16:32:17.425Z,7.90
2022-12-13T16:34:46.906Z,7.90
2022-12-13T16:37:25.728Z,8.00
2022-12-13T16:39:55.488Z,8.00
2022-12-13T16:42:26.077Z,8.00
2022-12-13T16:45:17.857Z,7.90
2022-12-13T16:47:48.366Z,7.90
2022-12-13T16:50:20.432Z,7.90
2022-12-13T16:52:48.669Z,7.90
2022-12-13T16:55:16.980Z,7.90
2022-12-13T16:57:45.108Z,7.90
2022-12-13T17:00:14.468Z,7.90
2022-12-13T17:02:42.612Z,7.90
2022-12-13T17:05:10.831Z,7.90
2022-12-13T17:07:40.433Z,7.90
2022-12-13T17:10:10.561Z,7.90
2022-12-13T17:12:38.840Z,7.90
2022-12-13T17:15:08.792Z,7.90
2022-12-13T17:17:38.056Z,7.90
2022-12-13T17:20:08.341Z,7.90
2022-12-13T17:22:36.525Z,7.90
2022-12-13T17:25:06.614Z,7.90
2022-12-13T17:27:34.803Z,7.90
2022-12-13T17:30:02.879Z,7.90
2022-12-13T17:32:30.947Z,7.90
2022-12-13T17:34:58.972Z,7.90
2022-12-13T17:37:27.070Z,7.90
2022-12-13T17:39:55.126Z,7.90
2022-12-13T17:42:46.976Z,7.90
2022-12-13T17:45:15.305Z,7.90
2022-12-13T17:47:43.567Z,7.90
2022-12-13T17:50:11.625Z,7.90
2022-12-13T17:52:39.926Z,7.90
2022-12-13T17:55:11.223Z,7.90
2022-12-13T17:57:44.662Z,7.90
2022-12-13T18:00:15.020Z,7.90
2022-12-13T18:02:43.112Z,7.90
2022-12-13T18:05:25.178Z,7.90
2022-12-13T18:07:53.239Z,7.90
2022-12-13T18:10:26.232Z,7.90
2022-12-13T18:12:58.906Z,7.90
2022-12-13T18:15:30.051Z,7.90
2022-12-13T18:18:11.346Z,7.90
2022-12-13T18:20:40.025Z,7.90
2022-12-13T18:23:08.143Z,7.90
2022-12-13T18:25:36.511Z,7.90
2022-12-13T18:28:06.858Z,7.90
2022-12-13T18:30:34.974Z,7.90
2022-12-13T18:33:03.063Z,7.90
2022-12-13T18:35:31.219Z,7.90
2022-12-13T18:37:59.629Z,7.90
2022-12-13T18:40:27.714Z,7.90
2022-12-13T18:42:55.768Z,7.90
2022-12-13T18:45:25.558Z,7.90
2022-12-13T18:47:53.665Z,7.90
2022-12-13T18:50:21.921Z,7.80
2022-12-13T18:52:49.992Z,7.90
2022-12-13T18:55:18.066Z,7.90
2022-12-13T18:57:46.161Z,7.90
2022-12-13T19:00:15.459Z,7.90
2022-12-13T19:02:44.989Z,7.90
2022-12-13T19:05:13.640Z,7.90
2022-12-13T19:07:41.768Z,7.90
2022-12-13T19:10:10.242Z,7.90
2022-12-13T19:12:38.505Z,7.90
2022-12-13T19:15:07.337Z,7.90
2022-12-13T19:17:35.490Z,7.80
2022-12-13T19:20:05.804Z,7.80
2022-12-13T19:22:39.957Z,7.80
2022-12-13T19:25:09.500Z,7.80
2022-12-13T19:27:37.901Z,7.80
2022-12-13T19:30:07.037Z,7.80
2022-12-13T19:32:35.110Z,7.80
2022-12-13T19:35:04.574Z,7.80
2022-12-13T19:37:32.612Z,7.90
2022-12-13T19:40:00.814Z,7.80
2022-12-13T19:42:28.873Z,7.90
2022-12-13T19:44:57.061Z,7.80
2022-12-13T19:47:25.158Z,7.90
2022-12-13T19:49:53.220Z,7.80
2022-12-13T19:52:22.684Z,7.90
2022-12-13T19:54:50.748Z,7.80
2022-12-13T19:57:21.493Z,7.80
2022-12-13T19:59:49.505Z,7.80
2022-12-13T20:02:17.590Z,7.80
2022-12-13T20:04:45.921Z,7.80
2022-12-13T20:07:13.973Z,7.80
2022-12-13T20:09:43.389Z,7.80
2022-12-13T20:12:11.428Z,7.80
2022-12-13T20:14:39.547Z,7.80
2022-12-13T20:17:08.201Z,7.80
2022-12-13T20:19:36.410Z,7.80
2022-12-13T20:22:04.475Z,7.80
2022-12-13T20:24:32.624Z,7.80
2022-12-13T20:27:02.098Z,7.80
2022-12-13T20:29:30.169Z,7.80
2022-12-13T20:31:58.355Z,7.80
2022-12-13T20:34:26.428Z,7.80
2022-12-13T20:36:54.553Z,7.80
2022-12-13T20:39:22.765Z,7.80
2022-12-13T20:41:50.903Z,7.80
2022-12-13T20:44:20.461Z,7.80
2022-12-13T20:46:48.658Z,7.80
2022-12-13T20:49:16.883Z,7.80
2022-12-13T20:51:45.009Z,7.80
2022-12-13T20:54:13.220Z,7.80
2022-12-13T20:56:41.637Z,7.80
2022-12-13T20:59:11.846Z,7.80
2022-12-13T21:01:41.735Z,7.80
2022-12-13T21:04:10.388Z,7.80
2022-12-13T21:06:39.977Z,7.80
2022-12-13T21:09:08.265Z,7.80
2022-12-13T21:11:37.407Z,7.80
2022-12-13T21:14:10.068Z,7.80
2022-12-13T21:16:43.854Z,7.80
2022-12-13T21:19:14.455Z,7.80
2022-12-13T21:21:42.490Z,7.80
2022-12-13T21:24:10.760Z,7.80
2022-12-13T21:26:38.811Z,7.80
2022-12-13T21:29:07.837Z,7.80
2022-12-13T21:31:36.224Z,7.80
2022-12-13T21:34:06.530Z,7.80
2022-12-13T21:36:35.095Z,7.80
2022-12-13T21:39:04.462Z,7.80
2022-12-13T21:41:32.499Z,7.80
2022-12-13T21:44:00.765Z,7.80
2022-12-13T21:46:54.826Z,7.80
2022-12-13T21:49:19.087Z,7.80
2022-12-13T21:51:48.451Z,7.70
2022-12-13T21:54:17.191Z,7.80
2022-12-13T21:57:02.712Z,7.70
2022-12-13T21:59:31.773Z,7.70
2022-12-13T22:02:14.500Z,7.70
2022-12-13T22:04:45.012Z,7.70
2022-12-13T22:07:13.796Z,7.70
2022-12-13T22:09:41.947Z,7.70
2022-12-13T22:12:10.458Z,7.70
2022-12-13T22:14:38.518Z,7.70
2022-12-13T22:17:06.541Z,7.70
2022-12-13T22:19:34.605Z,7.70
2022-12-13T22:22:04.005Z,7.70
2022-12-13T22:24:32.130Z,7.70
2022-12-13T22:27:00.335Z,7.70
2022-12-13T22:29:28.713Z,7.70
2022-12-13T22:31:56.905Z,7.70
2022-12-13T22:34:24.918Z,7.70
2022-12-13T22:36:53.419Z,7.70
2022-12-13T22:39:23.613Z,7.70
2022-12-13T22:41:52.151Z,7.70
2022-12-13T22:44:20.820Z,7.70
2022-12-13T22:46:49.131Z,7.70
2022-12-13T22:49:17.213Z,7.70
2022-12-13T22:51:45.440Z,7.70
2022-12-13T22:54:13.701Z,7.70
2022-12-13T22:56:43.129Z,7.70
2022-12-13T22:59:11.220Z,7.70
2022-12-13T23:01:40.350Z,7.70
2022-12-13T23:04:08.596Z,7.70
2022-12-13T23:06:37.256Z,7.70
2022-12-13T23:09:06.563Z,7.70
2022-12-13T23:11:52.192Z,7.70
2022-12-13T23:14:25.942Z,7.70
2022-12-13T23:16:54.077Z,7.70
2022-12-13T23:22:10.888Z,7.70
2022-12-13T23:24:38.959Z,7.70
2022-12-13T23:27:06.997Z,7.70
2022-12-13T23:29:36.517Z,7.70
2022-12-13T23:32:04.688Z,7.70
2022-12-13T23:34:32.836Z,7.70
2022-12-13T23:37:00.890Z,7.70
2022-12-13T23:39:29.109Z,7.60
2022-12-13T23:41:57.418Z,7.70
2022-12-13T23:44:25.561Z,7.60
2022-12-13T23:46:55.325Z,7.60
2022-12-13T23:49:23.502Z,7.60
2022-12-13T23:51:51.523Z,7.70
2022-12-13T23:54:20.262Z,7.60
2022-12-13T23:57:02.297Z,7.60
2022-12-13T23:59:30.366Z,7.60
